Extreme weather reports worldwide

Low visibility

Station
 
Location
 
Name
 
Wind
Knots
Gust
Knots
Vis
SM
Temp/Dew
C
Baro
inHg
METAR
 
VEPY 4 0.06 22/22 29.76 VEPY 230800Z 22004KT 0100 FG VV/// 22/22 Q1008 NOSIG
THU BGTL Thule, GL Thule Air Base 0 0.12 1/0 29.57 BGTL 230755Z AUTO 00000KT 0200 R08/0400 FG VV001 02/01 A2957 RMK AO2 SLP995 T00160006 TSNO $
KMWN 12 0.13 9/9 KMWN 230758Z 24012KT 1/8SM -RA FG VV001 09/09 RMK TSE50
FFU SCFT Futaleufu, CL Futaleufú Airport 2 0.16 -1/-1 30.00 SCFT 230800Z AUTO 12002KT 0250 FG VV001 M01/M01 Q1016
ZCO SCQP Temuco, CL La Araucanía Airport 2 0.19 2/2 29.85 SCQP 230800Z VRB02KT 0300 R01/0400N FG VV001 02/02 Q1011

Station
 
Location
 
Name
 
Wind
Knots
Gust
Knots
Vis
SM
Temp/Dew
C
Baro
inHg
METAR
 
FDO SADF San Fernando, AR San Fernando Airport 0 0.19 8/8 30.15 SADF 230800Z 00000KT 0300 R05/0375D FG VV002 08/08 Q1021
TLH KTLH Tallahassee, US Tallahassee Regional Airport 0 0.25 24/23 30.05 KTLH 230809Z AUTO 00000KT 1/4SM FG VV001 24/23 A3005 RMK AO2 T02440233 $
ARB KARB Ann Arbor, US Ann Arbor Municipal Airport 0 0.25 15/15 30.01 KARB 230809Z AUTO 00000KT 1/4SM FG VV002 16/16 A3001 RMK AO2 T01560156
HLG KHLG Wheeling, US Wheeling Ohio County Airport 3 0.25 18/17 30.06 KHLG 230805Z AUTO 19003KT 1/4SM R03/1200V1600FT FG VV002 19/18 A3006 RMK AO2 T01890178
LWC KLWC Lawrence, US Lawrence Municipal Airport 0 0.25 17/16 30.03 KLWC 230800Z AUTO 00000KT 1/4SM FG VV004 17/17 A3003 RMK AO1 T01720167
YSJ CYSJ Saint John, CA Saint John Airport 4 0.25 14/14 30.09 CYSJ 230800Z 18004KT 1/4SM R23/1400V1800FT/N FG VV001 14/14 A3009 RMK FG8 SLP192
YQI CYQI Yarmouth, CA Yarmouth Airport 5 0.25 15/15 30.10 CYQI 230800Z 14005KT 1/4SM FG VV002 15/15 A3010 RMK FG8 WIND EST SLP194
YGL CYGL La Grande Rivière, CA La Grande Rivière Airport 4 0.25 6/6 30.14 CYGL 230800Z 30004KT 1/4SM FG BKN002 06/06 A3014 RMK SF6 SLP216
KSMP 4 0.25 9/9 30.20 KSMP 230756Z AUTO VRB04KT 1/4SM FG VV002 09/09 A3020 RMK AO2 SLP216 T00940094 401670094
KXNX 0 0.25 22/21 30.05 KXNX 230755Z AUTO 00000KT 1/4SM FG OVC002 22/21 A3005 RMK A01
KW22 0 0.25 19/19 30.08 KW22 230755Z AUTO 00000KT M1/4SM FG OVC005 19/19 A3008 RMK AO2
KTEW Mason, US Mason Jewett Field 0 0.25 15/14 30.00 KTEW 230755Z AUTO 00000KT 1/4SM FG OVC003 16/14 A3000 RMK AO2 T01560143
KRDK Red Oak, US Red Oak Municipal Airport 0 0.25 18/18 30.04 KRDK 230755Z AUTO 00000KT M1/4SM FG OVC002 18/18 A3004 RMK AO2
OAR KOAR Marina, US Marina Municipal Airport 0 0.25 6/6 29.85 KOAR 230755Z AUTO 00000KT 1/4SM FG OVC003 06/06 A2985 RMK AO2
KJVY Jeffersonville, US Clark Regional Airport 0 0.25 7/7 30.01 KJVY 230755Z 00000KT 1/4SM FG OVC003 07/07 A3001 RMK AO2 VIS M1/4V2 1/2 TEMP/DEW PT/DENSITY ALT UNRELIABLE. RWY 18 PREFERRED CALM WIND
ICL KICL Clarinda, US Schenck Field 3 0.25 16/ 30.05 KICL 230755Z AUTO 23003KT 1/4SM FG OVC001 16/ A3005 RMK AO2
HAF KHAF Half Moon Bay, US Half Moon Bay Airport 5 0.25 11/11 29.85 KHAF 230755Z AUTO 15005KT M1/4SM FG OVC002 11/11 A2985 RMK AO2
KD60 4 0.25 18/18 30.06 KD60 230755Z AUTO 07004KT M1/4SM FG VV000 18/18 A3006 RMK AO2
KCDI Cambridge, US Cambridge Municipal Airport 0 0.25 15/15 30.06 KCDI 230755Z AUTO 00000KT 1/4SM FG OVC003 16/16 A3006 RMK AO2 T01570156
AMN KAMN Alma, US Gratiot Community Airport 3 0.25 15/15 29.99 KAMN 230755Z AUTO 15003KT 1/4SM FG VV002 15/15 A2999 RMK AO2
K2G2 0 0.25 18/18 30.04 K2G2 230755Z AUTO 00000KT 1/4SM FG BKN002 OVC055 18/18 A3004 RMK A01
SNP PASN St Paul Island, US St Paul Island Airport 7 0.25 7/6 29.98 PASN 230753Z AUTO 13007KT 1/4SM FG VV002 07/07 A2998 RMK AO2 SLP151 T00720067 TSNO $
MGW KMGW Morgantown, US Morgantown Municipal Walter L. Bill Hart Field 0 0.25 18/18 30.08 KMGW 230753Z AUTO 00000KT 1/4SM FG VV002 18/18 A3008 RMK AO2 SLP178 T01830183
FYV KFYV Fayetteville, US Drake Field 0 0.25 20/18 30.05 KFYV 230753Z AUTO 00000KT 1/4SM FG VV002 20/19 A3005 RMK AO2 SLP161 T02000189
CKB KCKB Clarksburg, US North Central West Virginia Airport 0 0.25 18/18 30.06 KCKB 230753Z AUTO 00000KT 1/4SM FG VV002 19/18 A3006 RMK AO2 SLP166 T01890183 PNO $
FKS RJSF Sukagawa, JP Fukushima Airport 11 0.37 23/22 29.82 RJSF 230803Z 24011KT 0600 R01/1000VP2000D +TSRA BR FEW004 SCT010 SCT025CB BKN030 23/22 Q1010 RMK 1ST004 3ST010 4CB025 6CU030 A2985 HVY TS OHD STNR P/RR RI++
SBCO Porto Alegre, BR Canoas Air Force Base 0 0.37 14/14 30.21 SBCO 230800Z 00000KT 0600 R13/0450 R31/2000 FG OVC003 14/14 Q1023
RES SARE Resistencia, AR Resistencia International Airport 2 0.37 8/8 30.12 SARE 230800Z 21002KT 0600 R21/0400 FG NSC 08/08 Q1020
VBG KVBG Lompoc, US Vandenberg Air Force Base 5 0.38 12/11 29.86 KVBG 230810Z AUTO 35005KT 3/8SM R12/2000V2200FT FG VV000 12/11 A2986 RMK AO2 SLP114 TSNO $
K1JN 0 0.38 19/19 K1JN 230755Z AUTO 00000KT 3/8SM FG BKN026 OVC036 20/20 M RMK AO2 RAB22E39 CIG 015V028 SLPNO P0000 T01960196 RVRNO $
IPN SBIP Ipatinga, BR Usiminas Airport 1 0.4 11/9 30.21 SBIP 230800Z AUTO VRB01KT 0650 -RA FG ///////// 11/09 Q1023
YGW CYGW Kuujjuarapik, CA Kuujjuarapik Airport 3 0.5 8/7 30.14 CYGW 230811Z AUTO 18003KT 160V230 1/2SM FG VV002 08/07 A3014 RMK SLP210
K24A 4 0.5 18/18 30.18 K24A 230810Z AUTO 14004KT 1/2SM FG OVC003 19/19 A3018 RMK AO2 LTG DSNT SE AND NW T01890188
BTP KBTP Butler, US Pittsburgh/Butler Regional Airport 0 0.5 16/16 30.06 KBTP 230806Z AUTO 00000KT 1/2SM FG FEW002 BKN060 16/16 A3006 RMK AO2 TSNO
MEJ KGKJ Meadville, US Port Meadville Airport 0 0.5 18/18 30.05 KGKJ 230804Z AUTO 00000KT 1/2SM FG BKN002 OVC045 19/19 A3005 RMK AO2 T01890189
BKC PABL Buckland, US Buckland Airport 7 0.5 12/12 30.12 PABL 230803Z AUTO 34007KT 1/2SM -RA FG VV001 12/12 A3012 RMK AO2 RAB0757 P0000
FNT KFNT Flint, US Bishop International Airport 3 0.5 16/16 30.01 KFNT 230801Z AUTO 08003KT 1/2SM R09/2200V3000FT FG VV005 17/16 A3001 RMK AO2 T01670161
YLT CYLT Alert, CA Alert Airport 3 0.5 -2/-2 29.68 CYLT 230800Z 10003KT 050V130 1/2SM FZFG SCT150 M02/M02 A2968 RMK AC4 DENSITY ALT -1627FT SLP053
PSK KPSK Dublin, US New River Valley Airport 0 0.5 18/18 30.11 KPSK 230755Z AUTO 00000KT 1/2SM FG OVC001 19/19 A3011 RMK AO2 T01890189
KPBH Phillips, US Price County Airport 0 0.5 14/14 29.99 KPBH 230755Z AUTO 00000KT 1/2SM FG OVC001 15/15 A2999 RMK AO2 LTG DSNT S T01450145
KMTV Martinsville, US Blue Ridge Airport 0 0.5 20/19 30.09 KMTV 230755Z AUTO 00000KT 1/2SM FG BKN002 BKN075 21/20 A3009 RMK AO2 T02080195
AIO KAIO Atlantic, US Atlantic Municipal Airport 0 0.5 16/16 30.02 KAIO 230755Z AUTO 00000KT 1/2SM FG VV005 16/16 A3002 RMK AO2 VIS M1/4V2 1/2
KVTA Newark, US Newark Heath Airport 0 0.5 17/16 30.04 KVTA 230754Z AUTO 00000KT 1/2SM FG FEW120 17/16 A3004 RMK AO2 SLP167 T01720161
HYR KHYR Hayward, US Sawyer County Airport 3 0.5 14/14 29.99 KHYR 230753Z AUTO 35003KT 1/2SM FG VV003 14/14 A2999 RMK AO2 SLP155 T01440144
PIT KPIT Pittsburgh, US Pittsburgh International Airport 3 0.5 18/17 30.05 KPIT 230751Z VRB03KT 1/2SM R28R/4000VP6000FT BR OVC001 19/17 A3005 RMK AO2 SFC VIS 1 1/2 SLP176 T01890172